Time;durP1;ratioP1;P1;durP2;ratioP2;P2;SDS_P1;SDS_P2;PMS_P1;PMS_P2;Temp;Humidity;BMP_temperature;BMP_pressure;BME280_temperature;BME280_humidity;BME280_pressure;Samples;Min_cycle;Max_cycle;Signal;HPM_P1;HPM_P2
2022/10/01 00:02:22;;;;;;;31.33;19.37;;;;;;;;;;5050464;28;20138;-62
2022/10/01 00:04:49;;;;;;;27.43;16.17;;;;;;;;;;5048498;28;20041;-62
2022/10/01 00:07:16;;;;;;;27.10;18.27;;;;;;;;;;5048290;28;20067;-62
2022/10/01 00:09:42;;;;;;;22.47;15.33;;;;;;;;;;5063099;28;20117;-62
2022/10/01 00:12:08;;;;;;;20.53;14.40;;;;;;;;;;5071018;28;20594;-62
2022/10/01 00:14:37;;;;;;;41.23;21.20;;;;;;;;;;5052945;28;20073;-62
2022/10/01 00:17:03;;;;;;;21.80;15.33;;;;;;;;;;5051561;28;20045;-62
2022/10/01 00:19:29;;;;;;;23.33;16.37;;;;;;;;;;5057960;28;20479;-62
2022/10/01 00:21:55;;;;;;;33.00;19.97;;;;;;;;;;5062994;28;20044;-62
2022/10/01 00:24:21;;;;;;;23.90;16.10;;;;;;;;;;5051706;28;20045;-62
2022/10/01 00:26:47;;;;;;;28.83;19.70;;;;;;;;;;5051794;28;20103;-62
2022/10/01 00:29:14;;;;;;;24.33;17.20;;;;;;;;;;5052862;28;20081;-62
2022/10/01 00:31:40;;;;;;;31.57;19.80;;;;;;;;;;5051944;28;20052;-62
2022/10/01 00:34:06;;;;;;;29.27;19.53;;;;;;;;;;5055447;28;20055;-62
2022/10/01 00:36:33;;;;;;;31.60;18.53;;;;;;;;;;5071449;28;20102;-62
2022/10/01 00:38:59;;;;;;;39.03;20.80;;;;;;;;;;5062944;28;20047;-62
2022/10/01 00:41:29;;;;;;;29.23;18.60;;;;;;;;;;5051805;28;20049;-62
2022/10/01 00:43:57;;;;;;;24.23;17.23;;;;;;;;;;5067199;28;20063;-62
2022/10/01 00:46:37;;;;;;;26.00;17.67;;;;;;;;;;5070691;28;20041;-62
2022/10/01 00:49:08;;;;;;;31.27;19.77;;;;;;;;;;5067634;28;20040;-62
2022/10/01 00:51:38;;;;;;;28.83;19.37;;;;;;;;;;5059842;28;20051;-62
2022/10/01 00:54:09;;;;;;;28.93;19.63;;;;;;;;;;5071331;28;20056;-62
2022/10/01 00:56:37;;;;;;;25.63;16.37;;;;;;;;;;5071333;28;20052;-63
2022/10/01 00:59:03;;;;;;;29.87;19.93;;;;;;;;;;5063620;28;20056;-62
2022/10/01 01:01:30;;;;;;;37.47;20.17;;;;;;;;;;5059490;28;20042;-62
2022/10/01 01:03:56;;;;;;;38.23;22.70;;;;;;;;;;5069362;28;20041;-63
2022/10/01 01:06:22;;;;;;;31.80;19.77;;;;;;;;;;5055090;28;20044;-62
2022/10/01 01:08:53;;;;;;;36.13;20.30;;;;;;;;;;5050901;28;20090;-62
2022/10/01 01:11:28;;;;;;;25.67;16.67;;;;;;;;;;5054678;28;20166;-62
2022/10/01 01:14:15;;;;;;;30.90;20.97;;;;;;;;;;5055095;28;20053;-62
2022/10/01 01:16:47;;;;;;;29.37;19.57;;;;;;;;;;5060186;28;20044;-62
2022/10/01 01:19:34;;;;;;;32.73;20.77;;;;;;;;;;5069120;28;20056;-63
2022/10/01 01:22:02;;;;;;;31.73;20.07;;;;;;;;;;5061018;28;20045;-63
2022/10/01 01:24:41;;;;;;;6.13;1.17;;;;;;;;;;5063877;28;20082;-62
2022/10/01 01:27:26;;;;;;;35.27;21.57;;;;;;;;;;5050581;28;20438;-62
2022/10/01 01:30:02;;;;;;;29.10;18.70;;;;;;;;;;5064968;28;20056;-63
2022/10/01 01:32:48;;;;;;;27.93;18.53;;;;;;;;;;5057377;28;20056;-62
2022/10/01 01:35:21;;;;;;;0.60;0.60;;;;;;;;;;5045558;28;20132;-62
2022/10/01 01:37:50;;;;;;;3.67;0.70;;;;;;;;;;5050467;28;20036;-62
2022/10/01 01:40:17;;;;;;;30.70;19.97;;;;;;;;;;5051040;28;20499;-63
2022/10/01 01:42:45;;;;;;;30.50;19.80;;;;;;;;;;5059766;28;20666;-62
2022/10/01 01:45:13;;;;;;;30.43;19.33;;;;;;;;;;5050641;28;20051;-62
2022/10/01 01:47:41;;;;;;;40.77;21.80;;;;;;;;;;5049934;28;20052;-62
2022/10/01 01:50:07;;;;;;;30.60;19.23;;;;;;;;;;5051162;28;20076;-62
2022/10/01 01:52:33;;;;;;;31.50;19.30;;;;;;;;;;5063018;28;20044;-62
2022/10/01 01:55:06;;;;;;;33.37;19.17;;;;;;;;;;5069821;28;20090;-63
2022/10/01 01:57:34;;;;;;;0.80;0.80;;;;;;;;;;5053763;28;20052;-62
2022/10/01 02:00:00;;;;;;;0.57;0.57;;;;;;;;;;5064992;28;20052;-63
2022/10/01 02:02:29;;;;;;;0.30;0.30;;;;;;;;;;5069142;28;20044;-62
2022/10/01 02:04:59;;;;;;;31.23;17.47;;;;;;;;;;5061374;28;20033;-63
2022/10/01 02:07:51;;;;;;;27.33;16.83;;;;;;;;;;5050578;28;20056;-64
2022/10/01 02:10:17;;;;;;;25.47;16.17;;;;;;;;;;5059925;28;20057;-63
2022/10/01 02:12:43;;;;;;;0.30;0.27;;;;;;;;;;5061822;28;20076;-64
2022/10/01 02:15:17;;;;;;;21.10;11.73;;;;;;;;;;5052305;28;20507;-64
2022/10/01 02:18:01;;;;;;;32.40;19.45;;;;;;;;;;5066708;28;20048;-64
2022/10/01 02:20:30;;;;;;;30.97;19.70;;;;;;;;;;5054446;28;20044;-63
2022/10/01 02:22:59;;;;;;;23.77;17.03;;;;;;;;;;5068693;28;20039;-63
2022/10/01 02:25:27;;;;;;;24.27;16.57;;;;;;;;;;5049050;28;20139;-63
2022/10/01 02:28:09;;;;;;;28.33;18.87;;;;;;;;;;5050764;28;20530;-63
2022/10/01 02:30:37;;;;;;;27.13;17.37;;;;;;;;;;5050265;28;20044;-63
2022/10/01 02:33:04;;;;;;;35.00;21.13;;;;;;;;;;5048550;28;20048;-64
2022/10/01 02:35:31;;;;;;;22.17;15.63;;;;;;;;;;5049458;28;20570;-63
2022/10/01 02:37:59;;;;;;;24.50;17.13;;;;;;;;;;5062972;28;20055;-63
2022/10/01 02:40:27;;;;;;;26.67;17.60;;;;;;;;;;5049913;28;20048;-63
2022/10/01 02:42:59;;;;;;;17.97;14.77;;;;;;;;;;5049378;28;20044;-64
2022/10/01 02:45:26;;;;;;;21.20;15.50;;;;;;;;;;5050477;28;20045;-63
2022/10/01 02:48:15;;;;;;;19.57;14.23;;;;;;;;;;5051128;28;20564;-64
2022/10/01 02:50:57;;;;;;;21.20;14.50;;;;;;;;;;5049136;28;20083;-63
2022/10/01 02:53:36;;;;;;;24.10;15.70;;;;;;;;;;5052025;28;20190;-63
2022/10/01 02:56:04;;;;;;;20.47;14.17;;;;;;;;;;5069286;28;20056;-64
2022/10/01 02:58:30;;;;;;;20.73;13.83;;;;;;;;;;5064982;28;20518;-63
2022/10/01 03:00:56;;;;;;;17.93;13.20;;;;;;;;;;5048556;28;20049;-63
2022/10/01 03:03:24;;;;;;;21.00;14.43;;;;;;;;;;5051105;28;20407;-63
2022/10/01 03:05:51;;;;;;;17.73;12.53;;;;;;;;;;5068749;28;20056;-63
2022/10/01 03:08:18;;;;;;;18.10;12.67;;;;;;;;;;5067211;28;20086;-63
2022/10/01 03:10:44;;;;;;;21.80;14.10;;;;;;;;;;5068037;28;20061;-63
2022/10/01 03:13:10;;;;;;;18.70;13.17;;;;;;;;;;5059257;28;20049;-63
2022/10/01 03:15:36;;;;;;;23.47;15.53;;;;;;;;;;5057654;28;20052;-63
2022/10/01 03:18:02;;;;;;;24.03;14.30;;;;;;;;;;5066846;28;20390;-64
2022/10/01 03:20:28;;;;;;;17.00;12.90;;;;;;;;;;5066301;28;20040;-63
2022/10/01 03:22:54;;;;;;;16.37;11.67;;;;;;;;;;5053065;28;20037;-64
2022/10/01 03:25:20;;;;;;;16.10;11.57;;;;;;;;;;5060067;28;20044;-64
2022/10/01 03:27:46;;;;;;;17.80;11.80;;;;;;;;;;5050194;28;20053;-63
2022/10/01 03:30:13;;;;;;;20.93;14.23;;;;;;;;;;5056254;28;20040;-63
2022/10/01 03:32:39;;;;;;;25.07;14.67;;;;;;;;;;5066606;28;20491;-64
2022/10/01 03:35:05;;;;;;;18.07;13.00;;;;;;;;;;5068543;28;20051;-63
2022/10/01 03:37:31;;;;;;;17.73;11.97;;;;;;;;;;5068669;28;20036;-64
2022/10/01 03:39:57;;;;;;;15.50;12.03;;;;;;;;;;5065988;28;20048;-63
2022/10/01 03:42:23;;;;;;;23.80;13.83;;;;;;;;;;5067753;28;20044;-64
2022/10/01 03:44:49;;;;;;;17.17;12.03;;;;;;;;;;5055261;28;20064;-63
2022/10/01 03:47:15;;;;;;;15.93;11.03;;;;;;;;;;5052964;28;20041;-63
2022/10/01 03:49:41;;;;;;;14.77;11.33;;;;;;;;;;5064424;28;20045;-63
2022/10/01 03:52:07;;;;;;;17.80;10.77;;;;;;;;;;5072597;28;20387;-63
2022/10/01 03:54:33;;;;;;;16.73;11.63;;;;;;;;;;5070549;28;20044;-63
2022/10/01 03:56:59;;;;;;;16.07;11.43;;;;;;;;;;5067571;28;20102;-63
2022/10/01 03:59:26;;;;;;;14.83;11.03;;;;;;;;;;5060728;28;20048;-63
2022/10/01 04:01:52;;;;;;;11.17;8.63;;;;;;;;;;5060223;28;20123;-63
2022/10/01 04:04:19;;;;;;;14.17;9.77;;;;;;;;;;5053560;28;20148;-63
2022/10/01 04:06:45;;;;;;;14.33;9.67;;;;;;;;;;5052069;28;20051;-63
2022/10/01 04:09:11;;;;;;;18.43;11.50;;;;;;;;;;5062991;28;20101;-64
2022/10/01 04:11:38;;;;;;;15.13;10.87;;;;;;;;;;5071354;28;20417;-64
2022/10/01 04:14:04;;;;;;;13.43;10.17;;;;;;;;;;5070155;28;20133;-63
2022/10/01 04:16:33;;;;;;;17.60;11.53;;;;;;;;;;5055007;28;20415;-63
2022/10/01 04:18:59;;;;;;;13.17;8.53;;;;;;;;;;5057739;28;20040;-63
2022/10/01 04:21:25;;;;;;;9.83;7.43;;;;;;;;;;5070664;28;20048;-64
2022/10/01 04:23:52;;;;;;;9.07;7.10;;;;;;;;;;5064340;28;20045;-63
2022/10/01 04:26:18;;;;;;;11.93;8.17;;;;;;;;;;5052165;28;20048;-63
2022/10/01 04:28:45;;;;;;;9.03;7.53;;;;;;;;;;5052812;28;20123;-63
2022/10/01 04:31:24;;;;;;;10.50;7.50;;;;;;;;;;5051249;28;20045;-63
2022/10/01 04:33:50;;;;;;;10.53;7.50;;;;;;;;;;5058753;28;20098;-63
2022/10/01 04:36:16;;;;;;;11.03;7.93;;;;;;;;;;5071774;28;20379;-63
2022/10/01 04:38:42;;;;;;;10.67;8.73;;;;;;;;;;5067327;28;20098;-64
2022/10/01 04:41:08;;;;;;;16.70;8.47;;;;;;;;;;5051829;28;20045;-63
2022/10/01 04:43:35;;;;;;;10.87;8.13;;;;;;;;;;5051110;28;20472;-64
2022/10/01 04:46:00;;;;;;;10.23;7.77;;;;;;;;;;5051857;28;20049;-63
2022/10/01 04:48:26;;;;;;;8.80;7.07;;;;;;;;;;5050479;28;20040;-63
2022/10/01 04:50:52;;;;;;;11.27;7.53;;;;;;;;;;5059244;28;20124;-63
2022/10/01 04:53:18;;;;;;;11.03;7.87;;;;;;;;;;5070687;28;20052;-63
2022/10/01 04:55:45;;;;;;;10.07;8.27;;;;;;;;;;5069006;28;20453;-63
2022/10/01 04:58:11;;;;;;;11.63;7.60;;;;;;;;;;5069342;28;20565;-63
2022/10/01 05:00:37;;;;;;;10.03;8.63;;;;;;;;;;5052724;28;20072;-62
2022/10/01 05:03:03;;;;;;;11.47;7.83;;;;;;;;;;5054053;28;20040;-64
2022/10/01 05:05:31;;;;;;;10.00;7.97;;;;;;;;;;5070806;28;20040;-63
2022/10/01 05:07:57;;;;;;;11.03;8.07;;;;;;;;;;5070439;28;20068;-63
2022/10/01 05:10:23;;;;;;;10.97;7.87;;;;;;;;;;5067310;28;20080;-63
2022/10/01 05:12:50;;;;;;;13.87;9.87;;;;;;;;;;5070994;28;20067;-63
2022/10/01 05:15:17;;;;;;;9.20;7.57;;;;;;;;;;5067818;28;20417;-63
2022/10/01 05:17:43;;;;;;;10.17;9.00;;;;;;;;;;5053317;28;20040;-63
2022/10/01 05:20:14;;;;;;;10.37;8.90;;;;;;;;;;5061062;28;20041;-63
2022/10/01 05:22:40;;;;;;;14.27;9.73;;;;;;;;;;5061814;28;20109;-63
2022/10/01 05:25:06;;;;;;;13.07;9.47;;;;;;;;;;5051966;28;20495;-63
2022/10/01 05:27:36;;;;;;;10.97;9.27;;;;;;;;;;5051626;28;20045;-63
2022/10/01 05:30:03;;;;;;;12.27;10.07;;;;;;;;;;5057522;28;20157;-63
2022/10/01 05:32:30;;;;;;;14.87;10.90;;;;;;;;;;5070291;28;20044;-64
2022/10/01 05:34:56;;;;;;;15.47;11.17;;;;;;;;;;5057147;28;20053;-63
2022/10/01 05:37:23;;;;;;;12.30;10.37;;;;;;;;;;5050961;28;20406;-63
2022/10/01 05:39:49;;;;;;;13.40;10.30;;;;;;;;;;5050898;28;20499;-63
2022/10/01 05:42:15;;;;;;;13.83;12.03;;;;;;;;;;5050129;28;20041;-63
2022/10/01 05:44:44;;;;;;;14.57;12.17;;;;;;;;;;5051050;28;20075;-63
2022/10/01 05:47:12;;;;;;;11.97;10.77;;;;;;;;;;5050496;28;20160;-64
2022/10/01 05:49:41;;;;;;;14.87;11.17;;;;;;;;;;5065495;28;20123;-64
2022/10/01 05:52:08;;;;;;;16.43;11.80;;;;;;;;;;5057646;28;20044;-64
2022/10/01 05:54:35;;;;;;;13.50;11.87;;;;;;;;;;5050674;28;20045;-63
2022/10/01 05:57:01;;;;;;;17.87;13.67;;;;;;;;;;5050239;28;20037;-62
2022/10/01 05:59:27;;;;;;;17.97;14.00;;;;;;;;;;5061884;28;20048;-63
2022/10/01 06:01:53;;;;;;;15.63;12.07;;;;;;;;;;5068574;28;20040;-62
2022/10/01 06:04:19;;;;;;;20.30;16.17;;;;;;;;;;5067842;28;20044;-63
2022/10/01 06:06:45;;;;;;;19.80;14.87;;;;;;;;;;5069508;28;20456;-63
2022/10/01 06:09:12;;;;;;;21.87;15.43;;;;;;;;;;5057888;28;20445;-64
2022/10/01 06:11:38;;;;;;;19.30;16.13;;;;;;;;;;5050275;28;20056;-63
2022/10/01 06:14:04;;;;;;;18.07;14.80;;;;;;;;;;5054085;28;20053;-63
2022/10/01 06:16:30;;;;;;;23.47;17.50;;;;;;;;;;5061928;28;20123;-62
2022/10/01 06:18:57;;;;;;;18.47;14.70;;;;;;;;;;5066168;28;20048;-63
2022/10/01 06:21:26;;;;;;;23.37;18.13;;;;;;;;;;5068167;28;20051;-63
2022/10/01 06:23:53;;;;;;;16.20;13.80;;;;;;;;;;5058181;28;20037;-63
2022/10/01 06:26:19;;;;;;;19.17;15.70;;;;;;;;;;5053069;28;20116;-63
2022/10/01 06:28:48;;;;;;;24.30;18.10;;;;;;;;;;5069454;28;20080;-63
2022/10/01 06:31:14;;;;;;;18.87;15.97;;;;;;;;;;5059645;28;20080;-62
2022/10/01 06:33:40;;;;;;;21.70;16.17;;;;;;;;;;5050008;28;20063;-63
2022/10/01 06:36:06;;;;;;;21.83;18.03;;;;;;;;;;5050747;28;20128;-62
2022/10/01 06:38:32;;;;;;;21.77;16.90;;;;;;;;;;5064120;28;20581;-62
2022/10/01 06:40:59;;;;;;;25.30;19.20;;;;;;;;;;5053616;28;20043;-63
2022/10/01 06:43:27;;;;;;;23.43;19.20;;;;;;;;;;5061048;28;20138;-63
2022/10/01 06:45:53;;;;;;;25.83;19.17;;;;;;;;;;5049186;28;20045;-63
2022/10/01 06:48:19;;;;;;;23.57;17.93;;;;;;;;;;5049485;28;20890;-62
2022/10/01 06:50:46;;;;;;;25.20;19.33;;;;;;;;;;5052709;28;20049;-63
2022/10/01 06:53:13;;;;;;;35.27;22.03;;;;;;;;;;5057881;28;20167;-63
2022/10/01 06:55:39;;;;;;;24.10;18.17;;;;;;;;;;5068335;28;20573;-62
2022/10/01 06:58:12;;;;;;;25.27;17.23;;;;;;;;;;5065799;28;20814;-63
2022/10/01 07:00:38;;;;;;;21.60;17.65;;;;;;;;;;5068321;28;20048;-63
2022/10/01 07:03:09;;;;;;;21.90;16.60;;;;;;;;;;5061034;28;20068;-62
2022/10/01 07:05:35;;;;;;;28.23;20.30;;;;;;;;;;5051986;28;20044;-63
2022/10/01 07:08:01;;;;;;;24.73;18.03;;;;;;;;;;5061154;28;20052;-62
2022/10/01 07:10:27;;;;;;;20.27;15.53;;;;;;;;;;5047984;28;20548;-62
2022/10/01 07:12:53;;;;;;;18.33;13.93;;;;;;;;;;5067574;28;20056;-63
2022/10/01 07:15:21;;;;;;;23.23;17.03;;;;;;;;;;5064217;28;20046;-63
2022/10/01 07:17:48;;;;;;;22.97;16.23;;;;;;;;;;5057530;28;20048;-63
2022/10/01 07:20:16;;;;;;;22.67;15.03;;;;;;;;;;5065636;28;20449;-62
2022/10/01 07:22:43;;;;;;;19.70;14.90;;;;;;;;;;5054009;28;20048;-62
2022/10/01 07:25:09;;;;;;;25.07;17.37;;;;;;;;;;5066109;28;20083;-63
2022/10/01 07:27:35;;;;;;;22.20;16.03;;;;;;;;;;5055056;28;20474;-62
2022/10/01 07:30:01;;;;;;;21.20;15.60;;;;;;;;;;5076444;28;20097;-63
2022/10/01 07:32:30;;;;;;;31.97;18.97;;;;;;;;;;5057485;28;20530;-63
2022/10/01 07:34:56;;;;;;;17.37;13.60;;;;;;;;;;5044802;28;20593;-63
2022/10/01 07:37:23;;;;;;;13.60;12.30;;;;;;;;;;5045249;28;20574;-62
2022/10/01 07:39:49;;;;;;;18.60;14.30;;;;;;;;;;5046124;28;20453;-63
2022/10/01 07:42:15;;;;;;;20.63;14.77;;;;;;;;;;5046301;28;20041;-63
2022/10/01 07:44:42;;;;;;;14.83;12.00;;;;;;;;;;5047522;28;20056;-63
2022/10/01 07:47:08;;;;;;;16.90;12.53;;;;;;;;;;5047281;28;20415;-63
2022/10/01 07:49:34;;;;;;;20.93;10.77;;;;;;;;;;5047561;28;20098;-63
2022/10/01 07:52:00;;;;;;;14.80;10.20;;;;;;;;;;5047793;28;20504;-63
2022/10/01 07:54:26;;;;;;;17.43;8.67;;;;;;;;;;5048366;28;20414;-63
2022/10/01 07:56:54;;;;;;;15.13;8.17;;;;;;;;;;5047643;28;20052;-62
2022/10/01 07:59:25;;;;;;;16.53;7.73;;;;;;;;;;5046109;28;20131;-63
2022/10/01 08:01:52;;;;;;;18.17;6.63;;;;;;;;;;5047351;28;20144;-63
2022/10/01 08:07:04;;;;;;;13.47;5.60;;;;;;;;;;5047854;28;20140;-63
2022/10/01 08:09:30;;;;;;;19.23;6.63;;;;;;;;;;5050276;28;20115;-63
2022/10/01 08:11:56;;;;;;;16.20;4.30;;;;;;;;;;5047479;28;20063;-63
2022/10/01 08:14:22;;;;;;;14.13;6.00;;;;;;;;;;5047676;28;20041;-63
2022/10/01 08:16:49;;;;;;;15.00;4.53;;;;;;;;;;5047496;28;20123;-63
2022/10/01 08:19:15;;;;;;;12.17;5.53;;;;;;;;;;5065008;28;20045;-63
2022/10/01 08:21:41;;;;;;;11.90;4.03;;;;;;;;;;5064262;28;20423;-62
2022/10/01 08:24:08;;;;;;;12.03;4.10;;;;;;;;;;5048120;28;20045;-63
2022/10/01 08:26:34;;;;;;;16.10;3.80;;;;;;;;;;5047446;28;20041;-62
2022/10/01 08:29:00;;;;;;;8.87;3.40;;;;;;;;;;5046808;28;20041;-63
2022/10/01 08:31:26;;;;;;;13.40;2.90;;;;;;;;;;5064354;28;20479;-63
2022/10/01 08:33:52;;;;;;;12.00;2.87;;;;;;;;;;5069423;28;20048;-62
2022/10/01 08:36:19;;;;;;;7.97;2.67;;;;;;;;;;5070575;28;20051;-63
2022/10/01 08:38:45;;;;;;;24.57;5.47;;;;;;;;;;5070428;28;20515;-63
2022/10/01 08:41:30;;;;;;;13.90;2.83;;;;;;;;;;5070161;28;20081;-63
2022/10/01 08:43:57;;;;;;;8.20;2.63;;;;;;;;;;5068708;28;20040;-63
2022/10/01 08:46:26;;;;;;;13.20;3.03;;;;;;;;;;5058494;28;20510;-63
2022/10/01 08:49:12;;;;;;;9.07;2.50;;;;;;;;;;5050095;28;20388;-63
2022/10/01 08:51:46;;;;;;;12.07;2.50;;;;;;;;;;5062326;28;20044;-62
2022/10/01 08:54:31;;;;;;;15.67;3.30;;;;;;;;;;5070657;28;20045;-62
2022/10/01 08:56:59;;;;;;;14.77;3.47;;;;;;;;;;5069883;28;20194;-63
2022/10/01 08:59:32;;;;;;;13.50;2.80;;;;;;;;;;5070543;28;20124;-64
2022/10/01 09:01:58;;;;;;;13.00;2.67;;;;;;;;;;5065174;28;20040;-64
2022/10/01 09:04:24;;;;;;;10.73;1.90;;;;;;;;;;5059860;28;20123;-64
2022/10/01 09:06:54;;;;;;;11.23;1.90;;;;;;;;;;5071078;28;20049;-63
2022/10/01 09:09:23;;;;;;;7.23;1.60;;;;;;;;;;5069861;28;20052;-63
2022/10/01 09:11:57;;;;;;;6.57;2.13;;;;;;;;;;5069717;28;20052;-64
2022/10/01 09:14:26;;;;;;;8.50;1.60;;;;;;;;;;5057875;28;20530;-63
2022/10/01 09:17:12;;;;;;;5.53;1.17;;;;;;;;;;5059917;28;20440;-64
2022/10/01 09:19:41;;;;;;;5.33;1.10;;;;;;;;;;5063097;28;20041;-63
2022/10/01 09:22:14;;;;;;;10.67;1.47;;;;;;;;;;5058633;28;20045;-64
2022/10/01 09:24:40;;;;;;;6.90;1.67;;;;;;;;;;5065335;28;20406;-63
2022/10/01 09:27:14;;;;;;;5.77;1.03;;;;;;;;;;5069234;28;20322;-64
2022/10/01 09:29:48;;;;;;;7.10;1.50;;;;;;;;;;5049918;28;20053;-64
2022/10/01 09:32:14;;;;;;;;;;;;;;;;;;5063343;28;20048;-64
2022/10/01 09:34:41;;;;;;;6.77;1.20;;;;;;;;;;5053742;28;19921;-63
2022/10/01 09:37:23;;;;;;;4.40;1.00;;;;;;;;;;5053352;28;20087;-63
2022/10/01 09:39:52;;;;;;;5.93;0.87;;;;;;;;;;5068692;28;20558;-63
2022/10/01 09:42:18;;;;;;;5.87;1.00;;;;;;;;;;5068306;28;20115;-63
2022/10/01 09:44:46;;;;;;;7.07;0.80;;;;;;;;;;5066635;28;20052;-63
2022/10/01 09:47:16;;;;;;;3.67;1.07;;;;;;;;;;5069352;28;20056;-63
2022/10/01 09:49:43;;;;;;;4.23;1.10;;;;;;;;;;5069357;28;20488;-63
2022/10/01 09:52:32;;;;;;;3.67;0.90;;;;;;;;;;5061225;28;20426;-63
2022/10/01 09:55:21;;;;;;;4.23;0.90;;;;;;;;;;5049371;28;20052;-66
2022/10/01 09:57:52;;;;;;;4.93;1.10;;;;;;;;;;5045891;28;20513;-67
2022/10/01 10:00:20;;;;;;;5.10;1.13;;;;;;;;;;5050520;28;20059;-67
2022/10/01 10:02:49;;;;;;;5.93;1.10;;;;;;;;;;5060230;28;20040;-67
2022/10/01 10:05:17;;;;;;;7.17;1.27;;;;;;;;;;5069334;28;20041;-67
2022/10/01 10:07:44;;;;;;;6.80;1.50;;;;;;;;;;5068569;28;20047;-64
2022/10/01 10:10:25;;;;;;;7.93;1.47;;;;;;;;;;5067744;28;20045;-65
2022/10/01 10:12:56;;;;;;;10.90;1.80;;;;;;;;;;5048817;28;20057;-65
2022/10/01 10:15:25;;;;;;;10.47;2.50;;;;;;;;;;5048864;28;20044;-65
2022/10/01 10:17:51;;;;;;;7.20;1.80;;;;;;;;;;5049044;28;20041;-65
2022/10/01 10:20:38;;;;;;;8.97;2.10;;;;;;;;;;5048948;28;20103;-65
2022/10/01 10:23:17;;;;;;;8.67;2.07;;;;;;;;;;5059122;28;20525;-65
2022/10/01 10:25:43;;;;;;;10.20;2.00;;;;;;;;;;5066843;28;20048;-65
2022/10/01 10:28:19;;;;;;;9.53;2.80;;;;;;;;;;5067053;28;20048;-65
2022/10/01 10:30:46;;;;;;;10.53;2.87;;;;;;;;;;5055026;28;20124;-65
2022/10/01 10:33:13;;;;;;;11.10;1.97;;;;;;;;;;5065089;28;20049;-64
2022/10/01 10:35:39;;;;;;;9.33;2.30;;;;;;;;;;5060921;28;20123;-65
2022/10/01 10:38:07;;;;;;;14.70;2.47;;;;;;;;;;5063722;28;20048;-64
2022/10/01 10:40:39;;;;;;;9.07;2.67;;;;;;;;;;5060642;28;20037;-63
2022/10/01 10:43:05;;;;;;;9.93;2.00;;;;;;;;;;5066233;28;20044;-63
2022/10/01 10:45:34;;;;;;;8.63;2.03;;;;;;;;;;5068611;28;20502;-63
2022/10/01 10:48:02;;;;;;;12.37;3.00;;;;;;;;;;5067579;28;20067;-63
2022/10/01 10:50:33;;;;;;;16.40;2.80;;;;;;;;;;5065925;28;20052;-63
2022/10/01 10:52:59;;;;;;;11.70;2.93;;;;;;;;;;5069144;28;20167;-62
2022/10/01 10:55:29;;;;;;;5.17;1.37;;;;;;;;;;5065754;28;20051;-62
2022/10/01 10:57:55;;;;;;;5.47;1.33;;;;;;;;;;5059564;28;20200;-62
2022/10/01 11:00:23;;;;;;;8.50;1.80;;;;;;;;;;5066251;28;20468;-62
2022/10/01 11:02:57;;;;;;;7.03;1.20;;;;;;;;;;5067961;28;20462;-64
2022/10/01 11:05:26;;;;;;;8.10;1.20;;;;;;;;;;5058710;28;20082;-64
2022/10/01 11:07:57;;;;;;;10.27;1.43;;;;;;;;;;5061243;28;20098;-64
2022/10/01 11:10:27;;;;;;;6.10;1.40;;;;;;;;;;5049995;28;20076;-64
2022/10/01 11:13:11;;;;;;;12.33;1.70;;;;;;;;;;5060772;28;20135;-64
2022/10/01 11:15:44;;;;;;;8.93;1.80;;;;;;;;;;5066734;28;20426;-64
2022/10/01 11:18:16;;;;;;;8.52;1.70;;;;;;;;;;5067909;28;20051;-65
2022/10/01 11:20:48;;;;;;;11.93;1.63;;;;;;;;;;5067060;28;20048;-65
2022/10/01 11:23:17;;;;;;;10.20;2.15;;;;;;;;;;5062518;28;20425;-65
2022/10/01 11:25:53;;;;;;;12.03;2.40;;;;;;;;;;5067142;28;20045;-64
2022/10/01 11:28:28;;;;;;;10.33;1.90;;;;;;;;;;5067675;28;20052;-65
2022/10/01 11:31:10;;;;;;;13.33;2.70;;;;;;;;;;5067287;28;20037;-64
2022/10/01 11:33:43;;;;;;;9.83;2.00;;;;;;;;;;5066164;28;20044;-65
2022/10/01 11:36:25;;;;;;;15.77;2.50;;;;;;;;;;5060331;28;20057;-64
2022/10/01 11:38:59;;;;;;;10.57;2.40;;;;;;;;;;5059785;28;20040;-64
2022/10/01 11:41:42;;;;;;;10.33;2.20;;;;;;;;;;5066966;28;20049;-64
2022/10/01 11:44:08;;;;;;;;;;;;;;;;;;5068127;28;20117;-64
2022/10/01 11:46:35;;;;;;;14.83;2.07;;;;;;;;;;5067298;28;19921;-64
2022/10/01 11:49:18;;;;;;;11.90;2.33;;;;;;;;;;5066203;28;20060;-64
2022/10/01 11:51:48;;;;;;;8.95;1.65;;;;;;;;;;5066579;28;20044;-64
2022/10/01 11:54:15;;;;;;;10.20;1.80;;;;;;;;;;5065936;28;20052;-64
2022/10/01 11:59:37;;;;;;;58.63;7.10;;;;;;;;;;5065339;28;20380;-64
2022/10/01 12:02:18;;;;;;;10.38;2.15;;;;;;;;;;5064776;28;20076;-64
2022/10/01 12:05:02;;;;;;;14.80;2.93;;;;;;;;;;5065006;28;20051;-63
2022/10/01 12:07:42;;;;;;;15.53;3.40;;;;;;;;;;5069742;28;20055;-64
2022/10/01 12:10:27;;;;;;;21.87;3.53;;;;;;;;;;5071584;28;20049;-63
2022/10/01 12:12:58;;;;;;;15.57;3.27;;;;;;;;;;5069638;28;20052;-63
2022/10/01 12:15:27;;;;;;;10.73;2.00;;;;;;;;;;5070982;28;20048;-63
2022/10/01 12:17:58;;;;;;;11.90;2.47;;;;;;;;;;5071154;28;20091;-63
2022/10/01 12:20:24;;;;;;;9.23;2.30;;;;;;;;;;5071485;28;20170;-63
2022/10/01 12:22:51;;;;;;;21.30;2.83;;;;;;;;;;5071266;28;20127;-64
2022/10/01 12:25:18;;;;;;;32.83;3.60;;;;;;;;;;5064357;28;20041;-64
2022/10/01 12:27:46;;;;;;;12.10;2.03;;;;;;;;;;5051163;28;20041;-64
2022/10/01 12:30:18;;;;;;;13.77;2.70;;;;;;;;;;5054917;28;20048;-64
2022/10/01 12:33:04;;;;;;;12.87;2.90;;;;;;;;;;5069743;28;20044;-64
2022/10/01 12:35:49;;;;;;;14.73;2.57;;;;;;;;;;5066476;28;20055;-64
2022/10/01 12:38:15;;;;;;;16.83;2.40;;;;;;;;;;5069961;28;20043;-65
2022/10/01 12:40:44;;;;;;;15.20;3.17;;;;;;;;;;5069753;28;20055;-65
2022/10/01 12:43:29;;;;;;;12.30;1.83;;;;;;;;;;5070826;28;20048;-64
2022/10/01 12:45:55;;;;;;;8.87;2.20;;;;;;;;;;5070081;28;20097;-64
2022/10/01 12:48:27;;;;;;;15.80;2.60;;;;;;;;;;5062127;28;20040;-65
2022/10/01 12:50:59;;;;;;;12.15;2.67;;;;;;;;;;5069901;28;20509;-64
2022/10/01 12:53:39;;;;;;;19.70;3.43;;;;;;;;;;5069122;28;20445;-64
2022/10/01 12:56:14;;;;;;;13.00;2.53;;;;;;;;;;5052929;28;20183;-64
2022/10/01 12:58:48;;;;;;;17.03;3.13;;;;;;;;;;5061020;28;20225;-64
2022/10/01 13:01:14;;;;;;;;;;;;;;;;;;5060739;28;20057;-64
2022/10/01 13:04:07;;;;;;;18.13;3.10;;;;;;;;;;5062829;28;19982;-64
2022/10/01 13:06:40;;;;;;;18.30;2.88;;;;;;;;;;5070201;28;20055;-64
2022/10/01 13:09:12;;;;;;;12.43;2.45;;;;;;;;;;5069477;28;20414;-64
2022/10/01 13:11:38;;;;;;;15.57;2.93;;;;;;;;;;5069577;28;20059;-64
2022/10/01 13:14:06;;;;;;;14.87;2.87;;;;;;;;;;5068660;28;20113;-64
2022/10/01 13:16:41;;;;;;;10.90;2.30;;;;;;;;;;5068897;28;20135;-63
2022/10/01 13:19:07;;;;;;;13.13;2.63;;;;;;;;;;5068283;28;20410;-64
2022/10/01 13:21:52;;;;;;;18.27;2.87;;;;;;;;;;5067657;28;20128;-63
2022/10/01 13:24:32;;;;;;;12.03;2.13;;;;;;;;;;5059743;28;20494;-63
2022/10/01 13:27:08;;;;;;;11.43;2.70;;;;;;;;;;5050367;28;20045;-63
2022/10/01 13:29:34;;;;;;;15.57;2.50;;;;;;;;;;5068597;28;20533;-63
2022/10/01 13:32:20;;;;;;;13.17;2.13;;;;;;;;;;5069429;28;20051;-63
2022/10/01 13:34:46;;;;;;;11.63;2.00;;;;;;;;;;5068681;28;20109;-62
2022/10/01 13:37:30;;;;;;;11.67;2.40;;;;;;;;;;5069530;28;20048;-62
2022/10/01 13:39:56;;;;;;;18.97;2.93;;;;;;;;;;5067841;28;20048;-62
2022/10/01 13:42:24;;;;;;;13.03;2.20;;;;;;;;;;5067930;28;20047;-62
2022/10/01 13:45:03;;;;;;;15.70;2.93;;;;;;;;;;5068353;28;20044;-62
2022/10/01 13:47:30;;;;;;;11.37;2.50;;;;;;;;;;5067534;28;20059;-62
2022/10/01 13:49:59;;;;;;;13.37;2.10;;;;;;;;;;5069878;28;20056;-62
2022/10/01 13:52:25;;;;;;;12.17;2.97;;;;;;;;;;5065918;28;20040;-61
2022/10/01 13:54:52;;;;;;;13.63;2.00;;;;;;;;;;5060214;28;20457;-61
2022/10/01 13:57:27;;;;;;;13.03;3.20;;;;;;;;;;5066973;28;20131;-62
2022/10/01 14:00:06;;;;;;;16.30;2.47;;;;;;;;;;5068712;28;20463;-62
2022/10/01 14:02:34;;;;;;;16.77;2.80;;;;;;;;;;5068338;28;20048;-62
2022/10/01 14:05:09;;;;;;;10.47;2.80;;;;;;;;;;5067055;28;20056;-61
2022/10/01 14:07:37;;;;;;;13.90;2.30;;;;;;;;;;5062586;28;20221;-61
2022/10/01 14:10:04;;;;;;;16.20;2.67;;;;;;;;;;5050499;28;20045;-62
2022/10/01 14:18:09;;;;;;;14.13;2.67;;;;;;;;;;5067427;28;20450;-61
2022/10/01 14:20:45;;;;;;;13.37;2.40;;;;;;;;;;5068808;28;20502;-61
2022/10/01 14:23:13;;;;;;;17.27;3.20;;;;;;;;;;5067688;28;20414;-61
2022/10/01 14:25:51;;;;;;;17.07;2.90;;;;;;;;;;5062147;28;20045;-61
2022/10/01 14:28:20;;;;;;;17.30;3.37;;;;;;;;;;5062081;28;20418;-61
2022/10/01 14:30:46;;;;;;;10.83;2.50;;;;;;;;;;5066486;28;20049;-60
2022/10/01 14:33:18;;;;;;;12.67;2.97;;;;;;;;;;5068705;28;20093;-61
2022/10/01 14:35:57;;;;;;;13.53;2.20;;;;;;;;;;5067743;28;20093;-61
2022/10/01 14:38:24;;;;;;;15.67;3.20;;;;;;;;;;5067584;28;20302;-61
2022/10/01 14:40:51;;;;;;;14.77;2.87;;;;;;;;;;5067340;28;20044;-61
2022/10/01 14:43:25;;;;;;;10.00;2.10;;;;;;;;;;5067969;28;20411;-60
2022/10/01 14:46:01;;;;;;;12.57;2.43;;;;;;;;;;5068845;28;20040;-60
2022/10/01 14:48:28;;;;;;;16.60;3.30;;;;;;;;;;5067590;28;20124;-60
2022/10/01 14:50:56;;;;;;;12.90;2.63;;;;;;;;;;5066044;28;20682;-61
2022/10/01 14:53:23;;;;;;;14.80;3.60;;;;;;;;;;5067227;28;20052;-61
2022/10/01 14:55:50;;;;;;;13.40;2.43;;;;;;;;;;5067809;28;20052;-60